Terminal Aerodrome Forecast
Issued by NWS Bismarck, ND

Home | Current Version | Previous Version | Text Only | Print | Product List | Glossary Off
Versions: 1 2 3 4 5 6 7 8 9 10 11 12 13 14 15 16 17 18

000
FTUS43 KBIS 281442 AAA
TAFISN
TAF AMD
KISN 281442Z 2815/2912 22016G26KT P6SM -RA BKN009 OVC014
     FM281600 24020G35KT P6SM -SHRA OVC015
     FM281800 28035G50KT P6SM -SHRA OVC025
     FM290300 28020G30KT P6SM VCSH BKN035 OVC050
     FM290600 28015KT P6SM SCT070=

USA.gov is the U.S. government's official web portal to all federal, state and local government web resources and services.